sensor_id;sensor_type;location;lat;lon;timestamp;P1;durP1;ratioP1;P2;durP2;ratioP2
50056;SDS011;36875;49.468;11.200;2023-04-03T00:00:13;0.93;;;0.68;;
50056;SDS011;36875;49.468;11.200;2023-04-03T00:02:38;1.08;;;0.52;;
50056;SDS011;36875;49.468;11.200;2023-04-03T00:05:06;0.47;;;0.47;;
50056;SDS011;36875;49.468;11.200;2023-04-03T00:07:31;0.82;;;0.50;;
50056;SDS011;36875;49.468;11.200;2023-04-03T00:09:57;0.95;;;0.75;;
50056;SDS011;36875;49.468;11.200;2023-04-03T00:12:22;2.35;;;0.50;;
50056;SDS011;36875;49.468;11.200;2023-04-03T00:14:48;0.43;;;0.43;;
50056;SDS011;36875;49.468;11.200;2023-04-03T00:17:15;0.50;;;0.50;;
50056;SDS011;36875;49.468;11.200;2023-04-03T00:19:40;0.50;;;0.50;;
50056;SDS011;36875;49.468;11.200;2023-04-03T00:22:06;0.50;;;0.50;;
50056;SDS011;36875;49.468;11.200;2023-04-03T00:24:31;0.75;;;0.50;;
50056;SDS011;36875;49.468;11.200;2023-04-03T00:26:56;0.77;;;0.50;;
50056;SDS011;36875;49.468;11.200;2023-04-03T00:29:22;1.02;;;0.50;;
50056;SDS011;36875;49.468;11.200;2023-04-03T00:31:48;0.68;;;0.45;;
50056;SDS011;36875;49.468;11.200;2023-04-03T00:34:14;0.50;;;0.50;;
50056;SDS011;36875;49.468;11.200;2023-04-03T00:36:40;0.85;;;0.63;;
50056;SDS011;36875;49.468;11.200;2023-04-03T00:39:05;0.60;;;0.50;;
50056;SDS011;36875;49.468;11.200;2023-04-03T00:41:31;0.38;;;0.38;;
50056;SDS011;36875;49.468;11.200;2023-04-03T00:43:57;1.00;;;0.50;;
50056;SDS011;36875;49.468;11.200;2023-04-03T00:46:22;1.35;;;0.52;;
50056;SDS011;36875;49.468;11.200;2023-04-03T00:48:48;0.50;;;0.40;;
50056;SDS011;36875;49.468;11.200;2023-04-03T00:51:16;0.65;;;0.50;;
50056;SDS011;36875;49.468;11.200;2023-04-03T00:53:46;0.40;;;0.40;;
50056;SDS011;36875;49.468;11.200;2023-04-03T00:56:15;0.57;;;0.40;;
50056;SDS011;36875;49.468;11.200;2023-04-03T00:58:44;1.77;;;0.60;;
50056;SDS011;36875;49.468;11.200;2023-04-03T01:01:14;1.35;;;0.63;;
50056;SDS011;36875;49.468;11.200;2023-04-03T01:03:42;0.40;;;0.40;;
50056;SDS011;36875;49.468;11.200;2023-04-03T01:06:08;0.47;;;0.47;;
50056;SDS011;36875;49.468;11.200;2023-04-03T01:08:35;0.32;;;0.30;;
50056;SDS011;36875;49.468;11.200;2023-04-03T01:11:00;0.95;;;0.50;;
50056;SDS011;36875;49.468;11.200;2023-04-03T01:13:27;0.45;;;0.40;;
50056;SDS011;36875;49.468;11.200;2023-04-03T01:15:55;0.50;;;0.50;;
50056;SDS011;36875;49.468;11.200;2023-04-03T01:18:21;0.60;;;0.43;;
50056;SDS011;36875;49.468;11.200;2023-04-03T01:24:09;0.85;;;0.70;;
50056;SDS011;36875;49.468;11.200;2023-04-03T01:26:43;0.70;;;0.50;;
50056;SDS011;36875;49.468;11.200;2023-04-03T01:29:09;0.70;;;0.50;;
50056;SDS011;36875;49.468;11.200;2023-04-03T01:31:51;0.40;;;0.40;;
50056;SDS011;36875;49.468;11.200;2023-04-03T01:34:18;1.58;;;0.52;;
50056;SDS011;36875;49.468;11.200;2023-04-03T01:36:44;0.55;;;0.50;;
50056;SDS011;36875;49.468;11.200;2023-04-03T01:39:10;0.40;;;0.40;;
50056;SDS011;36875;49.468;11.200;2023-04-03T01:41:35;0.50;;;0.40;;
50056;SDS011;36875;49.468;11.200;2023-04-03T01:44:01;1.02;;;0.50;;
50056;SDS011;36875;49.468;11.200;2023-04-03T01:46:26;0.43;;;0.35;;
50056;SDS011;36875;49.468;11.200;2023-04-03T01:48:53;0.47;;;0.47;;
50056;SDS011;36875;49.468;11.200;2023-04-03T01:51:19;0.82;;;0.47;;
50056;SDS011;36875;49.468;11.200;2023-04-03T01:53:45;0.68;;;0.43;;
50056;SDS011;36875;49.468;11.200;2023-04-03T01:56:10;0.70;;;0.47;;
50056;SDS011;36875;49.468;11.200;2023-04-03T01:58:36;0.40;;;0.40;;
50056;SDS011;36875;49.468;11.200;2023-04-03T02:01:01;0.43;;;0.43;;
50056;SDS011;36875;49.468;11.200;2023-04-03T02:03:27;0.60;;;0.40;;
50056;SDS011;36875;49.468;11.200;2023-04-03T02:05:54;0.73;;;0.50;;
50056;SDS011;36875;49.468;11.200;2023-04-03T02:08:19;0.40;;;0.40;;
50056;SDS011;36875;49.468;11.200;2023-04-03T02:10:46;0.50;;;0.40;;
50056;SDS011;36875;49.468;11.200;2023-04-03T02:13:11;0.50;;;0.40;;
50056;SDS011;36875;49.468;11.200;2023-04-03T02:15:37;0.32;;;0.20;;
50056;SDS011;36875;49.468;11.200;2023-04-03T02:18:03;0.40;;;0.38;;
50056;SDS011;36875;49.468;11.200;2023-04-03T02:20:28;0.50;;;0.50;;
50056;SDS011;36875;49.468;11.200;2023-04-03T02:22:55;0.30;;;0.30;;
50056;SDS011;36875;49.468;11.200;2023-04-03T02:25:20;0.55;;;0.38;;
50056;SDS011;36875;49.468;11.200;2023-04-03T02:27:46;0.55;;;0.45;;
50056;SDS011;36875;49.468;11.200;2023-04-03T02:30:12;0.88;;;0.40;;
50056;SDS011;36875;49.468;11.200;2023-04-03T02:32:38;0.50;;;0.40;;
50056;SDS011;36875;49.468;11.200;2023-04-03T02:35:05;0.52;;;0.38;;
50056;SDS011;36875;49.468;11.200;2023-04-03T02:37:31;0.60;;;0.50;;
50056;SDS011;36875;49.468;11.200;2023-04-03T02:39:57;0.50;;;0.40;;
50056;SDS011;36875;49.468;11.200;2023-04-03T02:42:23;0.40;;;0.40;;
50056;SDS011;36875;49.468;11.200;2023-04-03T02:44:48;0.50;;;0.50;;
50056;SDS011;36875;49.468;11.200;2023-04-03T02:47:14;0.30;;;0.30;;
50056;SDS011;36875;49.468;11.200;2023-04-03T02:49:40;0.47;;;0.40;;
50056;SDS011;36875;49.468;11.200;2023-04-03T02:52:05;0.50;;;0.40;;
50056;SDS011;36875;49.468;11.200;2023-04-03T02:54:30;0.40;;;0.40;;
50056;SDS011;36875;49.468;11.200;2023-04-03T02:56:57;0.30;;;0.30;;
50056;SDS011;36875;49.468;11.200;2023-04-03T02:59:23;0.43;;;0.40;;
50056;SDS011;36875;49.468;11.200;2023-04-03T03:01:48;0.65;;;0.40;;
50056;SDS011;36875;49.468;11.200;2023-04-03T03:04:14;0.32;;;0.30;;
50056;SDS011;36875;49.468;11.200;2023-04-03T03:06:39;0.32;;;0.30;;
50056;SDS011;36875;49.468;11.200;2023-04-03T03:09:05;0.30;;;0.30;;
50056;SDS011;36875;49.468;11.200;2023-04-03T03:11:31;0.40;;;0.40;;
50056;SDS011;36875;49.468;11.200;2023-04-03T03:13:58;0.30;;;0.22;;
50056;SDS011;36875;49.468;11.200;2023-04-03T03:16:23;0.30;;;0.30;;
50056;SDS011;36875;49.468;11.200;2023-04-03T03:18:49;0.40;;;0.40;;
50056;SDS011;36875;49.468;11.200;2023-04-03T03:21:14;0.38;;;0.38;;
50056;SDS011;36875;49.468;11.200;2023-04-03T03:23:40;0.50;;;0.40;;
50056;SDS011;36875;49.468;11.200;2023-04-03T03:26:06;1.15;;;0.50;;
50056;SDS011;36875;49.468;11.200;2023-04-03T03:28:34;0.40;;;0.40;;
50056;SDS011;36875;49.468;11.200;2023-04-03T03:31:02;16.98;;;13.20;;
50056;SDS011;36875;49.468;11.200;2023-04-03T03:33:28;0.50;;;0.40;;
50056;SDS011;36875;49.468;11.200;2023-04-03T03:35:54;0.50;;;0.30;;
50056;SDS011;36875;49.468;11.200;2023-04-03T03:38:20;0.20;;;0.20;;
50056;SDS011;36875;49.468;11.200;2023-04-03T03:40:46;0.50;;;0.30;;
50056;SDS011;36875;49.468;11.200;2023-04-03T03:43:12;0.70;;;0.50;;
50056;SDS011;36875;49.468;11.200;2023-04-03T03:45:38;0.50;;;0.40;;
50056;SDS011;36875;49.468;11.200;2023-04-03T03:48:05;0.47;;;0.35;;
50056;SDS011;36875;49.468;11.200;2023-04-03T03:50:30;0.30;;;0.30;;
50056;SDS011;36875;49.468;11.200;2023-04-03T03:52:56;0.30;;;0.30;;
50056;SDS011;36875;49.468;11.200;2023-04-03T03:55:24;0.47;;;0.30;;
50056;SDS011;36875;49.468;11.200;2023-04-03T03:57:50;0.60;;;0.40;;
50056;SDS011;36875;49.468;11.200;2023-04-03T04:00:16;0.43;;;0.43;;
50056;SDS011;36875;49.468;11.200;2023-04-03T04:02:41;0.32;;;0.32;;
50056;SDS011;36875;49.468;11.200;2023-04-03T04:05:08;0.60;;;0.40;;
50056;SDS011;36875;49.468;11.200;2023-04-03T04:07:34;0.52;;;0.40;;
50056;SDS011;36875;49.468;11.200;2023-04-03T04:10:00;0.30;;;0.30;;
50056;SDS011;36875;49.468;11.200;2023-04-03T04:12:26;0.40;;;0.30;;
50056;SDS011;36875;49.468;11.200;2023-04-03T04:14:51;0.43;;;0.35;;
50056;SDS011;36875;49.468;11.200;2023-04-03T04:17:17;0.30;;;0.30;;
50056;SDS011;36875;49.468;11.200;2023-04-03T04:19:42;0.50;;;0.50;;
50056;SDS011;36875;49.468;11.200;2023-04-03T04:22:09;0.65;;;0.50;;
50056;SDS011;36875;49.468;11.200;2023-04-03T04:24:35;0.35;;;0.30;;
50056;SDS011;36875;49.468;11.200;2023-04-03T04:27:00;0.45;;;0.30;;
50056;SDS011;36875;49.468;11.200;2023-04-03T04:29:26;0.50;;;0.50;;
50056;SDS011;36875;49.468;11.200;2023-04-03T04:31:51;0.30;;;0.30;;
50056;SDS011;36875;49.468;11.200;2023-04-03T04:34:17;0.45;;;0.30;;
50056;SDS011;36875;49.468;11.200;2023-04-03T04:36:42;0.30;;;0.30;;
50056;SDS011;36875;49.468;11.200;2023-04-03T04:39:09;0.20;;;0.20;;
50056;SDS011;36875;49.468;11.200;2023-04-03T04:41:34;0.30;;;0.30;;
50056;SDS011;36875;49.468;11.200;2023-04-03T04:44:00;0.40;;;0.32;;
50056;SDS011;36875;49.468;11.200;2023-04-03T04:46:25;0.47;;;0.40;;
50056;SDS011;36875;49.468;11.200;2023-04-03T04:48:51;0.75;;;0.32;;
50056;SDS011;36875;49.468;11.200;2023-04-03T04:51:17;0.30;;;0.30;;
50056;SDS011;36875;49.468;11.200;2023-04-03T04:53:42;0.43;;;0.30;;
50056;SDS011;36875;49.468;11.200;2023-04-03T04:56:09;0.47;;;0.35;;
50056;SDS011;36875;49.468;11.200;2023-04-03T04:58:35;0.35;;;0.35;;
50056;SDS011;36875;49.468;11.200;2023-04-03T05:01:01;0.45;;;0.40;;
50056;SDS011;36875;49.468;11.200;2023-04-03T05:03:27;1.10;;;0.50;;
50056;SDS011;36875;49.468;11.200;2023-04-03T05:05:53;0.40;;;0.40;;
50056;SDS011;36875;49.468;11.200;2023-04-03T05:08:18;0.77;;;0.40;;
50056;SDS011;36875;49.468;11.200;2023-04-03T05:10:44;0.43;;;0.43;;
50056;SDS011;36875;49.468;11.200;2023-04-03T05:13:12;0.50;;;0.38;;
50056;SDS011;36875;49.468;11.200;2023-04-03T05:15:38;0.45;;;0.38;;
50056;SDS011;36875;49.468;11.200;2023-04-03T05:18:03;0.35;;;0.20;;
50056;SDS011;36875;49.468;11.200;2023-04-03T05:20:30;0.30;;;0.30;;
50056;SDS011;36875;49.468;11.200;2023-04-03T05:22:55;0.35;;;0.30;;
50056;SDS011;36875;49.468;11.200;2023-04-03T05:25:21;0.30;;;0.30;;
50056;SDS011;36875;49.468;11.200;2023-04-03T05:27:46;0.30;;;0.30;;
50056;SDS011;36875;49.468;11.200;2023-04-03T05:30:13;0.47;;;0.40;;
50056;SDS011;36875;49.468;11.200;2023-04-03T05:32:39;0.30;;;0.30;;
50056;SDS011;36875;49.468;11.200;2023-04-03T05:35:05;0.30;;;0.30;;
50056;SDS011;36875;49.468;11.200;2023-04-03T05:37:32;0.90;;;0.50;;
50056;SDS011;36875;49.468;11.200;2023-04-03T05:39:58;1.30;;;0.80;;
50056;SDS011;36875;49.468;11.200;2023-04-03T05:42:23;1.67;;;0.82;;
50056;SDS011;36875;49.468;11.200;2023-04-03T05:44:49;1.42;;;0.80;;
50056;SDS011;36875;49.468;11.200;2023-04-03T05:47:16;1.70;;;0.73;;
50056;SDS011;36875;49.468;11.200;2023-04-03T05:49:42;0.75;;;0.57;;
50056;SDS011;36875;49.468;11.200;2023-04-03T05:52:10;3.28;;;0.60;;
50056;SDS011;36875;49.468;11.200;2023-04-03T05:54:45;5.72;;;1.10;;
50056;SDS011;36875;49.468;11.200;2023-04-03T05:57:13;7.68;;;0.80;;
50056;SDS011;36875;49.468;11.200;2023-04-03T05:59:38;5.45;;;1.20;;
50056;SDS011;36875;49.468;11.200;2023-04-03T06:02:04;4.60;;;1.02;;
50056;SDS011;36875;49.468;11.200;2023-04-03T06:04:31;3.25;;;0.98;;
50056;SDS011;36875;49.468;11.200;2023-04-03T06:06:57;7.18;;;1.40;;
50056;SDS011;36875;49.468;11.200;2023-04-03T06:09:23;2.80;;;0.90;;
50056;SDS011;36875;49.468;11.200;2023-04-03T06:11:50;4.00;;;0.90;;
50056;SDS011;36875;49.468;11.200;2023-04-03T06:14:16;6.43;;;1.17;;
50056;SDS011;36875;49.468;11.200;2023-04-03T06:16:42;2.63;;;0.85;;
50056;SDS011;36875;49.468;11.200;2023-04-03T06:19:09;4.13;;;0.90;;
50056;SDS011;36875;49.468;11.200;2023-04-03T06:21:36;6.22;;;1.20;;
50056;SDS011;36875;49.468;11.200;2023-04-03T06:24:03;2.70;;;1.25;;
50056;SDS011;36875;49.468;11.200;2023-04-03T06:26:28;5.82;;;1.33;;
50056;SDS011;36875;49.468;11.200;2023-04-03T06:28:54;7.75;;;1.33;;
50056;SDS011;36875;49.468;11.200;2023-04-03T06:31:20;4.80;;;1.75;;
50056;SDS011;36875;49.468;11.200;2023-04-03T06:33:45;7.88;;;1.60;;
50056;SDS011;36875;49.468;11.200;2023-04-03T06:36:11;7.97;;;1.30;;
50056;SDS011;36875;49.468;11.200;2023-04-03T06:38:38;4.47;;;1.42;;
50056;SDS011;36875;49.468;11.200;2023-04-03T06:41:04;5.18;;;1.20;;
50056;SDS011;36875;49.468;11.200;2023-04-03T06:43:30;5.10;;;1.00;;
50056;SDS011;36875;49.468;11.200;2023-04-03T06:45:58;5.82;;;1.40;;
50056;SDS011;36875;49.468;11.200;2023-04-03T06:48:24;4.18;;;1.35;;
50056;SDS011;36875;49.468;11.200;2023-04-03T06:50:49;7.70;;;2.13;;
50056;SDS011;36875;49.468;11.200;2023-04-03T06:53:15;6.22;;;1.17;;
50056;SDS011;36875;49.468;11.200;2023-04-03T06:55:42;4.05;;;1.42;;
50056;SDS011;36875;49.468;11.200;2023-04-03T06:58:07;7.18;;;1.40;;
50056;SDS011;36875;49.468;11.200;2023-04-03T07:00:33;4.22;;;1.33;;
50056;SDS011;36875;49.468;11.200;2023-04-03T07:02:58;4.32;;;1.23;;
50056;SDS011;36875;49.468;11.200;2023-04-03T07:05:24;5.70;;;2.10;;
50056;SDS011;36875;49.468;11.200;2023-04-03T07:07:51;7.43;;;1.52;;
50056;SDS011;36875;49.468;11.200;2023-04-03T07:10:17;4.35;;;1.20;;
50056;SDS011;36875;49.468;11.200;2023-04-03T07:12:44;2.38;;;1.15;;
50056;SDS011;36875;49.468;11.200;2023-04-03T07:15:10;4.70;;;1.35;;
50056;SDS011;36875;49.468;11.200;2023-04-03T07:17:37;3.72;;;1.20;;
50056;SDS011;36875;49.468;11.200;2023-04-03T07:20:03;4.05;;;1.50;;
50056;SDS011;36875;49.468;11.200;2023-04-03T07:22:30;4.43;;;1.23;;
50056;SDS011;36875;49.468;11.200;2023-04-03T07:24:56;4.32;;;1.25;;
50056;SDS011;36875;49.468;11.200;2023-04-03T07:27:21;5.75;;;1.20;;
50056;SDS011;36875;49.468;11.200;2023-04-03T07:29:48;4.07;;;1.27;;
50056;SDS011;36875;49.468;11.200;2023-04-03T07:32:14;5.25;;;1.42;;
50056;SDS011;36875;49.468;11.200;2023-04-03T07:34:40;4.22;;;1.20;;
50056;SDS011;36875;49.468;11.200;2023-04-03T07:37:06;4.78;;;1.33;;
50056;SDS011;36875;49.468;11.200;2023-04-03T07:39:32;4.40;;;1.02;;
50056;SDS011;36875;49.468;11.200;2023-04-03T07:41:57;3.70;;;1.38;;
50056;SDS011;36875;49.468;11.200;2023-04-03T07:44:23;3.90;;;1.30;;
50056;SDS011;36875;49.468;11.200;2023-04-03T07:46:50;3.88;;;1.35;;
50056;SDS011;36875;49.468;11.200;2023-04-03T07:49:16;4.47;;;1.25;;
50056;SDS011;36875;49.468;11.200;2023-04-03T07:51:43;4.85;;;1.23;;
50056;SDS011;36875;49.468;11.200;2023-04-03T07:54:09;4.47;;;1.50;;
50056;SDS011;36875;49.468;11.200;2023-04-03T07:56:34;3.78;;;1.20;;
50056;SDS011;36875;49.468;11.200;2023-04-03T07:59:00;4.90;;;1.58;;
50056;SDS011;36875;49.468;11.200;2023-04-03T08:01:25;3.70;;;1.50;;
50056;SDS011;36875;49.468;11.200;2023-04-03T08:03:52;3.97;;;1.10;;
50056;SDS011;36875;49.468;11.200;2023-04-03T08:06:18;4.45;;;1.30;;
50056;SDS011;36875;49.468;11.200;2023-04-03T08:08:43;2.92;;;1.45;;
50056;SDS011;36875;49.468;11.200;2023-04-03T08:11:09;5.60;;;1.60;;
50056;SDS011;36875;49.468;11.200;2023-04-03T08:13:35;4.72;;;1.38;;
50056;SDS011;36875;49.468;11.200;2023-04-03T08:16:06;4.72;;;1.38;;
50056;SDS011;36875;49.468;11.200;2023-04-03T08:18:33;4.05;;;1.40;;
50056;SDS011;36875;49.468;11.200;2023-04-03T08:21:00;2.67;;;1.20;;
50056;SDS011;36875;49.468;11.200;2023-04-03T08:23:25;3.40;;;1.35;;
50056;SDS011;36875;49.468;11.200;2023-04-03T08:25:51;3.83;;;1.35;;
50056;SDS011;36875;49.468;11.200;2023-04-03T08:28:17;4.88;;;1.48;;
50056;SDS011;36875;49.468;11.200;2023-04-03T08:30:42;4.65;;;1.17;;
50056;SDS011;36875;49.468;11.200;2023-04-03T08:33:08;4.72;;;1.33;;
50056;SDS011;36875;49.468;11.200;2023-04-03T08:35:37;3.33;;;1.13;;
50056;SDS011;36875;49.468;11.200;2023-04-03T08:38:05;2.88;;;1.15;;
50056;SDS011;36875;49.468;11.200;2023-04-03T08:40:30;2.95;;;1.30;;
50056;SDS011;36875;49.468;11.200;2023-04-03T08:42:59;4.85;;;1.50;;
50056;SDS011;36875;49.468;11.200;2023-04-03T08:45:38;3.30;;;1.20;;
50056;SDS011;36875;49.468;11.200;2023-04-03T08:48:11;2.70;;;1.27;;
50056;SDS011;36875;49.468;11.200;2023-04-03T08:50:41;2.30;;;1.20;;
50056;SDS011;36875;49.468;11.200;2023-04-03T08:53:11;6.30;;;1.50;;
50056;SDS011;36875;49.468;11.200;2023-04-03T08:55:40;3.60;;;1.48;;
50056;SDS011;36875;49.468;11.200;2023-04-03T08:58:10;3.40;;;1.20;;
50056;SDS011;36875;49.468;11.200;2023-04-03T09:00:41;2.80;;;1.30;;
50056;SDS011;36875;49.468;11.200;2023-04-03T09:03:11;3.17;;;1.30;;
50056;SDS011;36875;49.468;11.200;2023-04-03T09:05:39;5.97;;;1.55;;
50056;SDS011;36875;49.468;11.200;2023-04-03T09:08:14;5.25;;;1.98;;
50056;SDS011;36875;49.468;11.200;2023-04-03T09:10:46;3.47;;;1.48;;
50056;SDS011;36875;49.468;11.200;2023-04-03T09:13:17;4.65;;;1.50;;
50056;SDS011;36875;49.468;11.200;2023-04-03T09:15:51;3.85;;;1.27;;
50056;SDS011;36875;49.468;11.200;2023-04-03T09:18:19;4.40;;;1.35;;
50056;SDS011;36875;49.468;11.200;2023-04-03T09:20:49;3.72;;;1.30;;
50056;SDS011;36875;49.468;11.200;2023-04-03T09:23:26;6.78;;;1.50;;
50056;SDS011;36875;49.468;11.200;2023-04-03T09:25:57;3.33;;;1.48;;
50056;SDS011;36875;49.468;11.200;2023-04-03T09:28:26;5.57;;;1.40;;
50056;SDS011;36875;49.468;11.200;2023-04-03T09:30:55;4.88;;;1.42;;
50056;SDS011;36875;49.468;11.200;2023-04-03T09:33:20;3.92;;;1.58;;
50056;SDS011;36875;49.468;11.200;2023-04-03T09:35:47;5.43;;;1.50;;
50056;SDS011;36875;49.468;11.200;2023-04-03T09:38:15;6.72;;;1.70;;
50056;SDS011;36875;49.468;11.200;2023-04-03T09:40:45;4.57;;;1.33;;
50056;SDS011;36875;49.468;11.200;2023-04-03T09:43:24;4.07;;;1.80;;
50056;SDS011;36875;49.468;11.200;2023-04-03T09:45:52;4.90;;;1.40;;
50056;SDS011;36875;49.468;11.200;2023-04-03T09:48:19;4.63;;;1.65;;
50056;SDS011;36875;49.468;11.200;2023-04-03T09:50:56;3.88;;;1.42;;
50056;SDS011;36875;49.468;11.200;2023-04-03T09:53:33;8.73;;;2.25;;
50056;SDS011;36875;49.468;11.200;2023-04-03T09:56:02;4.75;;;1.60;;
50056;SDS011;36875;49.468;11.200;2023-04-03T09:58:44;6.47;;;1.48;;
50056;SDS011;36875;49.468;11.200;2023-04-03T10:01:20;7.00;;;1.80;;
50056;SDS011;36875;49.468;11.200;2023-04-03T10:03:49;5.25;;;1.58;;
50056;SDS011;36875;49.468;11.200;2023-04-03T10:06:29;5.68;;;1.50;;
50056;SDS011;36875;49.468;11.200;2023-04-03T10:08:58;4.40;;;1.48;;
50056;SDS011;36875;49.468;11.200;2023-04-03T10:11:30;4.25;;;1.40;;
50056;SDS011;36875;49.468;11.200;2023-04-03T10:13:56;6.47;;;1.75;;
50056;SDS011;36875;49.468;11.200;2023-04-03T10:16:26;3.42;;;1.20;;
50056;SDS011;36875;49.468;11.200;2023-04-03T10:19:11;8.25;;;3.50;;
50056;SDS011;36875;49.468;11.200;2023-04-03T10:21:50;37.50;;;27.17;;
50056;SDS011;36875;49.468;11.200;2023-04-03T10:24:21;17.67;;;11.00;;
50056;SDS011;36875;49.468;11.200;2023-04-03T10:26:52;15.90;;;9.65;;
50056;SDS011;36875;49.468;11.200;2023-04-03T10:29:34;16.80;;;9.77;;
50056;SDS011;36875;49.468;11.200;2023-04-03T10:32:08;16.25;;;10.15;;
50056;SDS011;36875;49.468;11.200;2023-04-03T10:34:48;13.65;;;7.65;;
50056;SDS011;36875;49.468;11.200;2023-04-03T10:37:20;11.40;;;6.80;;
50056;SDS011;36875;49.468;11.200;2023-04-03T10:39:50;9.32;;;6.38;;
50056;SDS011;36875;49.468;11.200;2023-04-03T10:42:25;8.43;;;5.30;;
50056;SDS011;36875;49.468;11.200;2023-04-03T10:45:01;14.02;;;5.80;;
50056;SDS011;36875;49.468;11.200;2023-04-03T10:47:34;8.80;;;5.47;;
50056;SDS011;36875;49.468;11.200;2023-04-03T10:50:15;7.10;;;4.55;;
50056;SDS011;36875;49.468;11.200;2023-04-03T10:52:52;11.63;;;4.47;;
50056;SDS011;36875;49.468;11.200;2023-04-03T10:55:24;8.95;;;4.38;;
50056;SDS011;36875;49.468;11.200;2023-04-03T10:58:00;8.43;;;3.92;;
50056;SDS011;36875;49.468;11.200;2023-04-03T11:00:30;8.20;;;3.75;;
50056;SDS011;36875;49.468;11.200;2023-04-03T11:03:03;7.88;;;3.47;;
50056;SDS011;36875;49.468;11.200;2023-04-03T11:05:31;10.48;;;3.75;;
50056;SDS011;36875;49.468;11.200;2023-04-03T11:08:02;7.63;;;3.53;;
50056;SDS011;36875;49.468;11.200;2023-04-03T11:10:36;6.05;;;3.58;;
50056;SDS011;36875;49.468;11.200;2023-04-03T11:13:10;7.20;;;3.47;;
50056;SDS011;36875;49.468;11.200;2023-04-03T11:15:38;8.60;;;3.35;;
50056;SDS011;36875;49.468;11.200;2023-04-03T11:18:06;592.97;;;350.55;;
50056;SDS011;36875;49.468;11.200;2023-04-03T11:20:36;404.95;;;234.45;;
50056;SDS011;36875;49.468;11.200;2023-04-03T11:23:05;280.65;;;149.70;;
50056;SDS011;36875;49.468;11.200;2023-04-03T11:25:38;223.95;;;118.70;;
50056;SDS011;36875;49.468;11.200;2023-04-03T11:28:11;515.00;;;451.30;;
50056;SDS011;36875;49.468;11.200;2023-04-03T11:30:39;255.07;;;163.85;;
50056;SDS011;36875;49.468;11.200;2023-04-03T11:33:17;171.10;;;101.78;;
50056;SDS011;36875;49.468;11.200;2023-04-03T11:35:50;154.27;;;94.18;;
50056;SDS011;36875;49.468;11.200;2023-04-03T11:38:20;137.43;;;81.18;;
50056;SDS011;36875;49.468;11.200;2023-04-03T11:40:49;130.93;;;76.93;;
50056;SDS011;36875;49.468;11.200;2023-04-03T11:43:22;121.55;;;70.18;;
50056;SDS011;36875;49.468;11.200;2023-04-03T11:45:52;108.80;;;62.25;;
50056;SDS011;36875;49.468;11.200;2023-04-03T12:03:29;72.18;;;40.05;;
50056;SDS011;36875;49.468;11.200;2023-04-03T12:05:58;75.93;;;38.72;;
50056;SDS011;36875;49.468;11.200;2023-04-03T12:09:04;61.95;;;34.50;;
50056;SDS011;36875;49.468;11.200;2023-04-03T12:11:48;62.13;;;34.33;;
50056;SDS011;36875;49.468;11.200;2023-04-03T12:14:14;54.25;;;31.25;;
50056;SDS011;36875;49.468;11.200;2023-04-03T12:16:42;53.10;;;30.45;;
50056;SDS011;36875;49.468;11.200;2023-04-03T12:22:13;52.08;;;29.00;;
50056;SDS011;36875;49.468;11.200;2023-04-03T12:27:17;43.42;;;26.65;;
50056;SDS011;36875;49.468;11.200;2023-04-03T12:29:55;42.38;;;25.90;;
50056;SDS011;36875;49.468;11.200;2023-04-03T12:32:32;38.60;;;22.95;;
50056;SDS011;36875;49.468;11.200;2023-04-03T12:35:09;22.58;;;13.32;;
50056;SDS011;36875;49.468;11.200;2023-04-03T12:37:48;12.75;;;8.10;;
50056;SDS011;36875;49.468;11.200;2023-04-03T12:40:27;13.55;;;7.05;;
50056;SDS011;36875;49.468;11.200;2023-04-03T12:43:03;9.13;;;5.25;;
50056;SDS011;36875;49.468;11.200;2023-04-03T12:45:40;6.60;;;3.90;;
50056;SDS011;36875;49.468;11.200;2023-04-03T12:48:12;6.88;;;3.42;;
50056;SDS011;36875;49.468;11.200;2023-04-03T12:53:10;7.03;;;2.95;;
50056;SDS011;36875;49.468;11.200;2023-04-03T12:55:40;5.75;;;2.80;;
50056;SDS011;36875;49.468;11.200;2023-04-03T12:58:16;4.85;;;2.30;;
50056;SDS011;36875;49.468;11.200;2023-04-03T13:00:46;5.57;;;2.13;;
50056;SDS011;36875;49.468;11.200;2023-04-03T13:03:21;6.50;;;1.90;;
50056;SDS011;36875;49.468;11.200;2023-04-03T13:05:49;5.40;;;1.67;;
50056;SDS011;36875;49.468;11.200;2023-04-03T13:08:15;6.43;;;2.13;;
50056;SDS011;36875;49.468;11.200;2023-04-03T13:10:47;7.20;;;1.75;;
50056;SDS011;36875;49.468;11.200;2023-04-03T13:13:20;5.43;;;1.70;;
50056;SDS011;36875;49.468;11.200;2023-04-03T13:15:48;4.95;;;1.60;;
50056;SDS011;36875;49.468;11.200;2023-04-03T13:18:22;4.78;;;1.58;;
50056;SDS011;36875;49.468;11.200;2023-04-03T13:20:49;3.50;;;1.42;;
50056;SDS011;36875;49.468;11.200;2023-04-03T13:23:15;5.18;;;2.05;;
50056;SDS011;36875;49.468;11.200;2023-04-03T13:25:45;3.40;;;1.87;;
50056;SDS011;36875;49.468;11.200;2023-04-03T13:28:15;5.65;;;2.25;;
50056;SDS011;36875;49.468;11.200;2023-04-03T13:30:53;7.57;;;2.72;;
50056;SDS011;36875;49.468;11.200;2023-04-03T13:33:22;9.40;;;2.67;;
50056;SDS011;36875;49.468;11.200;2023-04-03T13:35:54;7.97;;;2.83;;
50056;SDS011;36875;49.468;11.200;2023-04-03T13:38:23;9.57;;;2.60;;
50056;SDS011;36875;49.468;11.200;2023-04-03T13:40:51;6.47;;;2.63;;
50056;SDS011;36875;49.468;11.200;2023-04-03T13:43:20;7.40;;;2.83;;
50056;SDS011;36875;49.468;11.200;2023-04-03T13:46:03;6.57;;;2.92;;
50056;SDS011;36875;49.468;11.200;2023-04-03T13:48:35;7.70;;;3.10;;
50056;SDS011;36875;49.468;11.200;2023-04-03T13:51:04;5.65;;;2.75;;
50056;SDS011;36875;49.468;11.200;2023-04-03T13:53:32;5.93;;;3.47;;
50056;SDS011;36875;49.468;11.200;2023-04-03T13:56:05;7.75;;;3.67;;
50056;SDS011;36875;49.468;11.200;2023-04-03T13:58:32;9.93;;;3.22;;
50056;SDS011;36875;49.468;11.200;2023-04-03T14:01:00;14.00;;;4.45;;
50056;SDS011;36875;49.468;11.200;2023-04-03T14:03:36;7.15;;;3.28;;
50056;SDS011;36875;49.468;11.200;2023-04-03T14:06:07;8.50;;;3.47;;
50056;SDS011;36875;49.468;11.200;2023-04-03T14:08:35;9.80;;;3.17;;
50056;SDS011;36875;49.468;11.200;2023-04-03T14:11:02;7.05;;;3.30;;
50056;SDS011;36875;49.468;11.200;2023-04-03T14:13:29;8.93;;;3.75;;
50056;SDS011;36875;49.468;11.200;2023-04-03T14:15:55;9.07;;;3.30;;
50056;SDS011;36875;49.468;11.200;2023-04-03T14:18:20;8.13;;;3.50;;
50056;SDS011;36875;49.468;11.200;2023-04-03T14:20:46;6.35;;;3.10;;
50056;SDS011;36875;49.468;11.200;2023-04-03T14:23:12;6.78;;;3.20;;
50056;SDS011;36875;49.468;11.200;2023-04-03T14:25:38;6.32;;;3.00;;
50056;SDS011;36875;49.468;11.200;2023-04-03T14:28:12;7.03;;;3.33;;
50056;SDS011;36875;49.468;11.200;2023-04-03T14:30:41;7.60;;;3.05;;
50056;SDS011;36875;49.468;11.200;2023-04-03T14:33:09;8.20;;;3.15;;
50056;SDS011;36875;49.468;11.200;2023-04-03T14:35:38;6.47;;;3.30;;
50056;SDS011;36875;49.468;11.200;2023-04-03T14:38:05;9.20;;;3.50;;
50056;SDS011;36875;49.468;11.200;2023-04-03T14:40:37;8.48;;;3.70;;
50056;SDS011;36875;49.468;11.200;2023-04-03T14:43:03;6.22;;;3.00;;
50056;SDS011;36875;49.468;11.200;2023-04-03T14:45:29;6.22;;;3.22;;
50056;SDS011;36875;49.468;11.200;2023-04-03T14:47:55;8.57;;;3.10;;
50056;SDS011;36875;49.468;11.200;2023-04-03T14:50:22;7.68;;;3.22;;
50056;SDS011;36875;49.468;11.200;2023-04-03T14:52:49;5.97;;;3.10;;
50056;SDS011;36875;49.468;11.200;2023-04-03T14:55:18;6.10;;;3.05;;
50056;SDS011;36875;49.468;11.200;2023-04-03T14:57:45;7.65;;;3.25;;
50056;SDS011;36875;49.468;11.200;2023-04-03T15:00:12;7.40;;;3.15;;
50056;SDS011;36875;49.468;11.200;2023-04-03T15:02:41;4.82;;;2.72;;